• Join FlightAware (Why Join?)
  • Login
  • US Flag 
03:48AM EDT


 

Airport Tracker/Info


-or-


 

Live Flight TrackerFlight Track Log ✈ N9786F ✈ 23-Jun-2013 ✈ KVLD - KHSV

Flight Track Log - Related Links

Times and Time Zones

All times are in EDT time to prevent confusion due to time zone crossing. See the N9786F flight status page for this flight to view local times or setup timezone preferences in your user account.

Time Position Orientation Groundspeed Altitude Reporting Facility
EDT Latitude Longitude Course Direction KTS MPH feet Rate Location/Type
11:08AM 30.7711 -83.2747 159° South 91 105 400  Level Jacksonville Center
11:09AM 30.7483 -83.2647 159° South 96 110 1,100 660 Climbing Jacksonville Center
11:10AM 30.7503 -83.2914 275° West 107 123 1,700 540 Climbing Jacksonville Center
11:11AM 30.7711 -83.3156 315° West 110 127 2,200 540 Climbing Jacksonville Center
11:12AM 30.7961 -83.3400 320° Northwest 113 130 2,800 540 Climbing Jacksonville Center
11:13AM 30.8211 -83.3619 323° Northwest 114 131 3,300 540 Climbing Jacksonville Center
11:14AM 30.8439 -83.3886 315° West 111 128 3,900 540 Climbing Jacksonville Center
11:15AM 30.8625 -83.4128 312° West 110 127 4,500 600 Climbing Jacksonville Center
11:16AM 30.8814 -83.4419 307° West 111 128 5,100 600 Climbing Jacksonville Center
11:17AM 30.9000 -83.4689 309° West 110 127 5,700 540 Climbing Jacksonville Center
11:18AM 30.9208 -83.4956 312° West 109 125 6,200 480 Climbing Jacksonville Center
11:19AM 30.9394 -83.5222 309° West 110 127 6,700 540 Climbing Jacksonville Center
11:20AM 30.9622 -83.5514 312° West 112 129 7,300 540 Climbing Jacksonville Center
11:21AM 30.9808 -83.5758 312° West 115 132 7,800 300 Climbing Jacksonville Center
11:22AM 31.0058 -83.6100 310° West 128 147 8,000 60 Climbing Jacksonville Center
11:23AM 31.0328 -83.6467 311° West 151 174 8,000  Level Jacksonville Center
11:24AM 31.0719 -83.6953 313° West 165 190 8,000 -60 Level Jacksonville Center
11:25AM 31.1031 -83.7319 315° West 165 190 7,900  Descending Jacksonville Center
11:26AM 31.1300 -83.7711 309° West 160 184 8,000  Climbing Jacksonville Center
11:27AM 31.1589 -83.8078 313° West 160 184 7,900  Descending Jacksonville Center
11:28AM 31.1878 -83.8469 311° West 160 184 8,000  Climbing Jacksonville Center
11:29AM 31.2189 -83.8836 315° West 160 184 8,000 -60 Level Jacksonville Center
11:30AM 31.2478 -83.9253 309° West 160 184 7,900 -60 Descending Jacksonville Center
11:31AM 31.2789 -83.9622 315° West 160 184 7,900  Level Jacksonville Center
11:32AM 31.3078 -83.9989 313° West 160 184 7,900  Level Jacksonville Center
11:33AM 31.3367 -84.0383 311° West 160 184 7,900  Level Jacksonville Center
11:34AM 31.3656 -84.0725 315° West 160 184 8,000  Climbing Jacksonville Center
11:35AM 31.3944 -84.1119 311° West 160 184 7,900  Descending Jacksonville Center
11:36AM 31.4233 -84.1464 315° West 160 184 8,000  Climbing Jacksonville Center
11:37AM 31.4522 -84.1833 313° West 160 184 8,000  Level Jacksonville Center
11:38AM 31.4811 -84.2203 313° West 160 184 8,000  Level Jacksonville Center
11:39AM 31.5097 -84.2597 310° West 160 184 8,000  Level Jacksonville Center
11:40AM 31.5386 -84.2942 315° West 160 184 8,000 -60 Level Jacksonville Center
11:41AM 31.5675 -84.3336 311° West 160 184 7,900 -60 Descending Jacksonville Center
11:42AM 31.5900 -84.3756 302° West 160 184 7,900  Level Jacksonville Center
11:43AM 31.6103 -84.4197 298° West 155 178 8,000  Climbing Jacksonville Center
11:44AM 31.6328 -84.4664 300° West 155 178 7,900 -60 Descending Jacksonville Center
11:45AM 31.6531 -84.5083 300° West 155 178 7,900  Level Jacksonville Center
11:47AM 31.7000 -84.6000 301° West 155 178 7,900  Level Atlanta TRACON
11:48AM 31.7167 -84.6500 291° West 155 178 7,900  Level Atlanta TRACON
11:49AM 31.7333 -84.6833 300° West 152 175 7,900  Level Atlanta TRACON
11:50AM 31.7667 -84.7333 308° West 151 174 8,000  Climbing Atlanta TRACON
11:51AM 31.7833 -84.7833 291° West 154 177 7,900 -60 Descending Atlanta TRACON
11:52AM 31.8000 -84.8167 300° West 155 178 7,900  Level Atlanta TRACON
11:53AM 31.8167 -84.8667 291° West 150 173 8,000  Climbing Atlanta TRACON
11:54AM 31.8333 -84.9000 300° West 155 178 8,000 -60 Level Atlanta TRACON
11:55AM 31.8667 -84.9500 308° West 156 180 7,900 -120 Descending Atlanta TRACON
11:56AM 31.8833 -84.9833 300° West 157 181 7,800  Descending Atlanta TRACON
11:57AM 31.9167 -85.0333 308° West 152 175 8,000 60 Climbing Atlanta TRACON
11:58AM 31.9333 -85.0833 291° West 154 177 8,000 -60 Level Atlanta TRACON
11:59AM 31.9500 -85.1167 301° West 157 181 7,900 -60 Descending Atlanta TRACON
12:00PM 31.9833 -85.1500 320° Northwest 159 183 7,900  Level Atlanta TRACON
12:01PM 32.0167 -85.1833 320° Northwest 153 176 7,900  Level Atlanta TRACON
12:02PM 32.0333 -85.2167 301° West 152 175 8,000  Climbing Atlanta TRACON
12:03PM 32.0833 -85.2333 344° North 161 185 8,000 -60 Level Atlanta TRACON
12:04PM 32.1333 -85.2500 344° North 163 188 7,900 -60 Descending Atlanta TRACON
12:05PM 32.1667 -85.2500 360° North 163 188 7,900  Level Atlanta TRACON
12:06PM 32.2000 -85.2833 320° Northwest 159 183 7,900  Level Atlanta TRACON
12:07PM 32.2333 -85.3167 320° Northwest 158 182 7,900  Level Atlanta TRACON
12:08PM 32.2667 -85.3333 337° Northwest 162 186 8,000  Climbing Atlanta TRACON
12:09PM 32.3167 -85.3667 331° Northwest 159 183 7,900 -60 Descending Atlanta TRACON
12:10PM 32.3500 -85.3833 337° Northwest 161 185 7,900  Level Atlanta TRACON
12:11PM 32.4000 -85.4167 331° Northwest 159 183 7,900  Level Atlanta TRACON
12:12PM 32.4333 -85.4167 360° North 162 186 7,900  Level Atlanta TRACON
12:13PM 32.4833 -85.4333 344° North 166 191 7,900  Level Atlanta TRACON
12:14PM 32.5167 -85.4500 337° Northwest 162 186 8,000  Climbing Atlanta TRACON
12:15PM 32.5500 -85.4667 337° Northwest 162 186 8,000 -60 Level Atlanta TRACON
12:16PM 32.6000 -85.5000 331° Northwest 161 185 7,900  Descending Atlanta TRACON
12:17PM 32.6333 -85.5167 337° Northwest 156 180 8,000  Climbing Atlanta TRACON
12:18PM 32.6833 -85.5333 344° North 159 183 8,000  Level Atlanta TRACON
12:19PM 32.7167 -85.5667 320° Northwest 159 183 8,000  Level Atlanta TRACON
12:20PM 32.7500 -85.5833 337° Northwest 160 184 8,000 -60 Level Atlanta TRACON
12:21PM 32.7833 -85.6167 320° Northwest 160 184 7,900 -60 Descending Atlanta TRACON
12:22PM 32.8278 -85.6383 338° Northwest 159 183 7,900  Level Atlanta Center
12:23PM 32.8672 -85.6586 337° Northwest 159 183 7,900  Level Atlanta Center
12:24PM 32.9044 -85.6817 333° Northwest 154 177 8,000  Climbing Atlanta Center
12:25PM 32.9419 -85.7047 333° Northwest 154 177 8,000  Level Atlanta Center
12:26PM 32.9811 -85.7328 329° Northwest 154 177 8,000  Level Atlanta Center
12:27PM 33.0225 -85.7583 333° Northwest 154 177 8,000  Level Atlanta Center
12:28PM 33.0597 -85.7811 333° Northwest 154 177 8,000  Level Atlanta Center
12:29PM 33.0992 -85.8069 331° Northwest 154 177 8,000  Level Atlanta Center
12:30PM 33.1383 -85.8275 336° Northwest 154 177 8,000  Level Atlanta Center
12:31PM 33.1756 -85.8506 333° Northwest 154 177 8,000  Level Atlanta Center
12:32PM 33.2150 -85.8761 332° Northwest 154 177 8,000  Level Atlanta Center
12:33PM 33.2542 -85.9044 329° Northwest 154 177 8,000  Level Atlanta Center
12:34PM 33.2914 -85.9275 333° Northwest 154 177 8,000  Level Atlanta Center
12:35PM 33.3286 -85.9508 332° Northwest 154 177 8,000  Level Atlanta Center
12:36PM 33.3678 -85.9764 331° Northwest 154 177 8,000  Level Atlanta Center
12:37PM 33.4072 -85.9972 336° Northwest 154 177 8,000  Level Atlanta Center
12:38PM 33.4444 -86.0231 330° Northwest 154 177 8,000  Level Atlanta Center
12:39PM 33.4814 -86.0511 328° Northwest 154 177 8,000  Level Atlanta Center
12:40PM 33.5208 -86.0719 336° Northwest 159 183 8,000 -60 Level Atlanta Center
12:41PM 33.5600 -86.1006 329° Northwest 159 183 7,900 -60 Descending Atlanta Center
12:42PM 33.6056 -86.1264 335° Northwest 166 191 7,900  Level Atlanta Center
12:43PM 33.6467 -86.1525 332° Northwest 161 185 7,900  Level Atlanta Center
12:44PM 33.6839 -86.1808 328° Northwest 161 185 8,000  Climbing Atlanta Center
12:45PM 33.7272 -86.2044 336° Northwest 161 185 7,900 -60 Descending Atlanta Center
12:46PM 33.7664 -86.2278 334° Northwest 161 185 7,900  Level Atlanta Center
12:47PM 33.8056 -86.2539 331° Northwest 161 185 7,900  Level Atlanta Center
12:48PM 33.8469 -86.2775 335° Northwest 161 185 7,900  Level Atlanta Center
12:49PM 33.8903 -86.3011 336° Northwest 161 185 7,900  Level Atlanta Center
12:50PM 33.9275 -86.3294 328° Northwest 161 185 7,900  Level Atlanta Center
12:51PM 33.9686 -86.3533 334° Northwest 161 185 7,900  Level Atlanta Center
12:52PM 34.0078 -86.3794 331° Northwest 161 185 7,900  Level Atlanta Center
12:54PM 34.0692 -86.4179 333° Northwest  Level FlightAware Approximate
01:01PM 34.3239 -86.5682 332° Northwest  Level FlightAware Approximate
01:02PM 34.3600 -86.5911 332° Northwest  Level FlightAware Approximate
01:03PM 34.3960 -86.6141 332° Northwest  Level FlightAware Approximate
01:04PM 34.4321 -86.6370 332° Northwest  Level FlightAware Approximate
01:05PM 34.4682 -86.6600 332° Northwest  Level FlightAware Approximate
01:06PM 34.5042 -86.6829 332° Northwest  Level FlightAware Approximate
01:07PM 34.5403 -86.7059 332° Northwest  Level FlightAware Approximate
01:08PM 34.5764 -86.7289 332° Northwest  Level FlightAware Approximate